Time;durP1;ratioP1;P1;durP2;ratioP2;P2;SDS_P1;SDS_P2;PMS_P1;PMS_P2;Temp;Humidity;BMP_temperature;BMP_pressure;BME280_temperature;BME280_humidity;BME280_pressure;Samples;Min_cycle;Max_cycle;Signal;HPM_P1;HPM_P2
2023/05/29 00:02:12;;;;;;;3.05;1.75;;;;;;;;;;13004809;19;20011;-61
2023/05/29 00:06:30;;;;;;;4.82;2.50;;;;;;;;;;13004370;19;20013;-62
2023/05/29 00:10:48;;;;;;;1.55;1.27;;;;;;;;;;13005676;19;20026;-61
2023/05/29 00:15:10;;;;;;;5.80;1.60;;;;;;;;;;13003680;19;20350;-61
2023/05/29 00:19:28;;;;;;;4.03;1.98;;;;;;;;;;13004062;19;20341;-61
2023/05/29 00:23:47;;;;;;;2.47;1.52;;;;;;;;;;13003524;19;20018;-62
2023/05/29 00:28:06;;;;;;;;;;;;;;;;;;13003526;19;20496;-61
2023/05/29 00:32:25;;;;;;;4.30;1.77;;;;;;;;;;13003735;19;20317;-61
2023/05/29 00:36:44;;;;;;;2.97;1.90;;;;;;;;;;13003998;19;20002;-61
2023/05/29 00:41:03;;;;;;;3.72;1.70;;;;;;;;;;13002242;19;20018;-61
2023/05/29 00:45:21;;;;;;;2.65;1.52;;;;;;;;;;13000682;19;20495;-61
2023/05/29 00:49:39;;;;;;;;;;;;;;;;;;13003683;19;20019;-61
2023/05/29 00:53:58;;;;;;;4.47;1.88;;;;;;;;;;13002445;19;20420;-61
2023/05/29 00:58:15;;;;;;;2.20;1.45;;;;;;;;;;13001619;19;20099;-61
2023/05/29 01:02:36;;;;;;;5.15;1.52;;;;;;;;;;13004787;19;20011;-61
2023/05/29 01:06:55;;;;;;;3.97;1.63;;;;;;;;;;13000454;19;20321;-61
2023/05/29 01:11:37;;;;;;;2.78;1.35;;;;;;;;;;13000119;19;20018;-62
2023/05/29 01:16:20;;;;;;;1.88;1.02;;;;;;;;;;13000618;19;20010;-61
2023/05/29 01:20:48;;;;;;;1.67;1.45;;;;;;;;;;13000139;19;20386;-61
2023/05/29 01:25:24;;;;;;;2.50;1.30;;;;;;;;;;12999231;19;20007;-60
2023/05/29 01:29:43;;;;;;;1.55;1.08;;;;;;;;;;13001155;19;20118;-61
2023/05/29 01:34:02;;;;;;;7.18;1.38;;;;;;;;;;13001241;19;20007;-60
2023/05/29 01:38:20;;;;;;;5.18;1.75;;;;;;;;;;13001060;19;20025;-61
2023/05/29 01:42:37;;;;;;;3.25;1.23;;;;;;;;;;13013011;19;20014;-61
2023/05/29 01:46:56;;;;;;;2.17;1.50;;;;;;;;;;13011590;19;20468;-61
2023/05/29 01:51:14;;;;;;;2.13;1.48;;;;;;;;;;13010898;19;20453;-61
2023/05/29 01:55:33;;;;;;;5.82;1.40;;;;;;;;;;13012726;19;20003;-61
2023/05/29 01:59:51;;;;;;;2.53;1.65;;;;;;;;;;13013054;19;20334;-61
2023/05/29 02:04:09;;;;;;;;;;;;;;;;;;13012333;19;20014;-61
2023/05/29 02:08:27;;;;;;;2.53;1.15;;;;;;;;;;13011676;19;19918;-61
2023/05/29 02:12:45;;;;;;;5.65;1.30;;;;;;;;;;13011807;19;20108;-61
2023/05/29 02:17:04;;;;;;;3.50;2.20;;;;;;;;;;13011115;19;20338;-61
2023/05/29 02:21:22;;;;;;;2.72;1.20;;;;;;;;;;13011765;19;20468;-60
2023/05/29 02:25:40;;;;;;;3.45;1.05;;;;;;;;;;13010004;19;20018;-61
2023/05/29 02:29:58;;;;;;;2.25;1.30;;;;;;;;;;13010744;19;20465;-61
2023/05/29 02:34:16;;;;;;;1.52;1.13;;;;;;;;;;13010744;19;20030;-60
2023/05/29 02:38:34;;;;;;;4.20;1.80;;;;;;;;;;13010474;19;20011;-61
2023/05/29 02:42:52;;;;;;;5.15;1.80;;;;;;;;;;13009927;19;20046;-61
2023/05/29 02:47:09;;;;;;;3.10;1.63;;;;;;;;;;13008513;19;20021;-60
2023/05/29 02:51:29;;;;;;;3.05;1.90;;;;;;;;;;13006940;19;20013;-61
2023/05/29 02:55:49;;;;;;;2.33;1.35;;;;;;;;;;13009504;19;20002;-60
2023/05/29 03:00:08;;;;;;;2.03;1.40;;;;;;;;;;13008510;19;20015;-61
2023/05/29 03:04:27;;;;;;;2.15;1.50;;;;;;;;;;13007958;19;20014;-61
2023/05/29 03:08:46;;;;;;;5.75;1.50;;;;;;;;;;13008639;19;20007;-61
2023/05/29 03:13:06;;;;;;;4.68;1.52;;;;;;;;;;13008429;19;20018;-61
2023/05/29 03:17:23;;;;;;;;;;;;;;;;;;13008932;19;20018;-60
2023/05/29 03:21:42;;;;;;;2.30;1.40;;;;;;;;;;13007904;19;19918;-60
2023/05/29 03:26:03;;;;;;;1.45;1.23;;;;;;;;;;13006144;19;20014;-65
2023/05/29 03:30:21;;;;;;;3.42;1.25;;;;;;;;;;13007940;19;20018;-60
2023/05/29 03:34:39;;;;;;;1.73;1.15;;;;;;;;;;13007762;19;20040;-61
2023/05/29 03:38:57;;;;;;;2.10;1.40;;;;;;;;;;13007181;19;20010;-60
2023/05/29 03:43:16;;;;;;;2.72;1.20;;;;;;;;;;13006290;19;20446;-60
2023/05/29 03:47:33;;;;;;;3.55;1.80;;;;;;;;;;13006280;19;20376;-60
2023/05/29 03:51:52;;;;;;;2.13;1.40;;;;;;;;;;13006857;19;20018;-60
2023/05/29 03:56:10;;;;;;;3.50;1.42;;;;;;;;;;13005762;19;20018;-60
2023/05/29 04:00:29;;;;;;;3.97;1.10;;;;;;;;;;13005456;19;20007;-60
2023/05/29 04:04:47;;;;;;;3.28;1.58;;;;;;;;;;13004056;19;19998;-61
2023/05/29 04:09:06;;;;;;;2.67;1.50;;;;;;;;;;13004543;19;20018;-61
2023/05/29 04:13:24;;;;;;;2.47;1.17;;;;;;;;;;13004563;19;20018;-60
2023/05/29 04:17:42;;;;;;;1.35;1.17;;;;;;;;;;13004329;19;20007;-60
2023/05/29 04:22:00;;;;;;;1.90;1.30;;;;;;;;;;13003721;19;20331;-60
2023/05/29 04:26:20;;;;;;;3.25;1.50;;;;;;;;;;13001735;19;20017;-60
2023/05/29 04:30:39;;;;;;;2.20;1.15;;;;;;;;;;13004118;19;20034;-60
2023/05/29 04:35:01;;;;;;;4.07;1.70;;;;;;;;;;13003475;19;20010;-60
2023/05/29 04:39:22;;;;;;;2.90;1.35;;;;;;;;;;13003374;19;20042;-60
2023/05/29 04:43:40;;;;;;;6.28;1.60;;;;;;;;;;13002811;19;20457;-60
2023/05/29 04:47:57;;;;;;;;;;;;;;;;;;13003821;19;20014;-61
2023/05/29 04:52:17;;;;;;;2.42;1.23;;;;;;;;;;13002593;19;19929;-60
2023/05/29 04:56:36;;;;;;;2.08;1.23;;;;;;;;;;13002505;19;20007;-61
2023/05/29 05:00:57;;;;;;;2.17;1.13;;;;;;;;;;13002025;19;20011;-60
2023/05/29 05:05:16;;;;;;;2.65;1.17;;;;;;;;;;13001187;19;20014;-60
2023/05/29 05:09:34;;;;;;;;;;;;;;;;;;13002368;19;20010;-60
2023/05/29 05:13:52;;;;;;;4.90;2.25;;;;;;;;;;12999295;19;20310;-60
2023/05/29 05:18:10;;;;;;;2.22;1.63;;;;;;;;;;13000886;19;20002;-60
2023/05/29 05:22:28;;;;;;;5.40;1.75;;;;;;;;;;13001234;19;20007;-60
2023/05/29 05:26:46;;;;;;;2.78;1.58;;;;;;;;;;13000832;19;20014;-60
2023/05/29 05:31:05;;;;;;;5.70;1.77;;;;;;;;;;13000167;19;20045;-60
2023/05/29 05:35:22;;;;;;;4.63;1.50;;;;;;;;;;13000372;19;20018;-60
2023/05/29 05:39:41;;;;;;;3.75;1.70;;;;;;;;;;12999980;19;20026;-61
2023/05/29 05:43:59;;;;;;;;;;;;;;;;;;13000020;19;20002;-61
2023/05/29 05:48:19;;;;;;;4.80;1.50;;;;;;;;;;12999869;19;19925;-61
2023/05/29 05:52:38;;;;;;;5.20;1.90;;;;;;;;;;12999620;19;20480;-61
2023/05/29 05:56:56;;;;;;;3.28;1.50;;;;;;;;;;12999359;19;20011;-61
2023/05/29 06:01:14;;;;;;;5.28;1.33;;;;;;;;;;12998651;19;20011;-61
2023/05/29 06:05:34;;;;;;;;;;;;;;;;;;12999184;19;20010;-61
2023/05/29 06:09:51;;;;;;;3.58;1.35;;;;;;;;;;12998755;19;19910;-61
2023/05/29 06:14:09;;;;;;;2.25;1.10;;;;;;;;;;12998065;19;20009;-62
2023/05/29 06:18:27;;;;;;;;;;;;;;;;;;12999729;19;20011;-61
2023/05/29 06:22:50;;;;;;;3.95;0.90;;;;;;;;;;12998670;19;20326;-61
2023/05/29 06:27:07;;;;;;;3.88;1.20;;;;;;;;;;13005584;19;20352;-61
2023/05/29 06:31:25;;;;;;;2.33;1.25;;;;;;;;;;13010708;19;20326;-61
2023/05/29 06:35:44;;;;;;;0.98;0.90;;;;;;;;;;13010474;19;20006;-61
2023/05/29 06:40:01;;;;;;;2.30;0.85;;;;;;;;;;13009732;19;20010;-68
2023/05/29 06:44:21;;;;;;;2.60;0.98;;;;;;;;;;13008871;19;20031;-61
2023/05/29 06:48:38;;;;;;;0.88;0.77;;;;;;;;;;13009975;19;20180;-61
2023/05/29 06:52:56;;;;;;;1.95;1.10;;;;;;;;;;13009769;19;20018;-61
2023/05/29 06:57:15;;;;;;;2.15;0.98;;;;;;;;;;13008670;19;20007;-61
2023/05/29 07:01:33;;;;;;;4.63;1.15;;;;;;;;;;13008971;19;20010;-61
2023/05/29 07:05:50;;;;;;;2.60;0.90;;;;;;;;;;13007358;19;20006;-61
2023/05/29 07:10:09;;;;;;;3.00;1.50;;;;;;;;;;13007977;19;20014;-61
2023/05/29 07:14:27;;;;;;;4.13;1.40;;;;;;;;;;13008066;19;20033;-61
2023/05/29 07:18:45;;;;;;;3.92;1.67;;;;;;;;;;13008945;19;20011;-61
2023/05/29 07:23:03;;;;;;;;;;;;;;;;;;13007837;19;20014;-62
2023/05/29 07:27:21;;;;;;;5.60;1.38;;;;;;;;;;13007121;19;19938;-62
2023/05/29 07:31:42;;;;;;;2.28;1.40;;;;;;;;;;13007531;19;20029;-61
2023/05/29 07:36:01;;;;;;;2.85;1.55;;;;;;;;;;13008461;19;20375;-61
2023/05/29 07:40:19;;;;;;;;;;;;;;;;;;13006122;19;20007;-61
2023/05/29 07:44:37;;;;;;;3.45;1.15;;;;;;;;;;13005890;19;19918;-61
2023/05/29 07:48:55;;;;;;;1.55;0.88;;;;;;;;;;13006208;19;20405;-61
2023/05/29 07:53:13;;;;;;;;;;;;;;;;;;13007037;19;20007;-61
2023/05/29 07:57:34;;;;;;;2.10;0.90;;;;;;;;;;13006297;19;19922;-61
2023/05/29 08:01:52;;;;;;;2.85;1.10;;;;;;;;;;13006467;19;20043;-62
2023/05/29 08:06:11;;;;;;;2.67;1.25;;;;;;;;;;13004608;19;20026;-62
2023/05/29 08:10:29;;;;;;;2.15;1.00;;;;;;;;;;13005233;19;20457;-61
2023/05/29 08:14:47;;;;;;;3.70;1.08;;;;;;;;;;13004996;19;20002;-61
2023/05/29 08:19:05;;;;;;;2.00;1.30;;;;;;;;;;13004483;19;20109;-61
2023/05/29 08:23:23;;;;;;;7.95;1.95;;;;;;;;;;13004526;19;20011;-61
2023/05/29 08:27:42;;;;;;;1.73;0.85;;;;;;;;;;13004122;19;20010;-61
2023/05/29 08:32:00;;;;;;;1.58;0.90;;;;;;;;;;13004118;19;20013;-61
2023/05/29 08:36:23;;;;;;;4.35;1.48;;;;;;;;;;13003395;19;20014;-61
2023/05/29 08:40:41;;;;;;;3.30;0.90;;;;;;;;;;13003447;19;20006;-61
2023/05/29 08:45:04;;;;;;;2.95;1.20;;;;;;;;;;13002363;19;20355;-61
2023/05/29 08:49:23;;;;;;;3.40;1.10;;;;;;;;;;13000950;19;20018;-61
2023/05/29 08:53:41;;;;;;;3.72;1.48;;;;;;;;;;13001238;19;20029;-61
2023/05/29 08:58:01;;;;;;;1.98;1.23;;;;;;;;;;13003428;19;20011;-61
2023/05/29 09:02:19;;;;;;;2.38;1.25;;;;;;;;;;13000725;19;20006;-61
2023/05/29 09:06:41;;;;;;;2.40;1.35;;;;;;;;;;13001807;19;20033;-61
2023/05/29 09:10:58;;;;;;;5.05;1.65;;;;;;;;;;13002272;19;20010;-61
2023/05/29 09:15:18;;;;;;;1.73;1.10;;;;;;;;;;13001631;19;20006;-62
2023/05/29 09:19:40;;;;;;;3.05;1.30;;;;;;;;;;13001354;19;20017;-62
2023/05/29 09:24:04;;;;;;;0.85;0.77;;;;;;;;;;13001388;19;20011;-62
2023/05/29 09:28:25;;;;;;;4.88;1.52;;;;;;;;;;13001155;19;20027;-62
2023/05/29 09:32:42;;;;;;;2.72;1.27;;;;;;;;;;13000831;19;20017;-62
2023/05/29 09:37:07;;;;;;;2.35;1.27;;;;;;;;;;13000718;19;20017;-62
2023/05/29 09:41:25;;;;;;;4.38;1.02;;;;;;;;;;13000355;19;20006;-63
2023/05/29 09:45:46;;;;;;;2.05;0.95;;;;;;;;;;12999264;19;20002;-62
2023/05/29 09:50:07;;;;;;;2.00;0.93;;;;;;;;;;12999957;19;20026;-63
2023/05/29 09:54:29;;;;;;;2.47;1.10;;;;;;;;;;13000071;19;20015;-62
2023/05/29 09:58:50;;;;;;;1.70;1.05;;;;;;;;;;12999899;19;20006;-62
2023/05/29 10:03:08;;;;;;;1.67;1.00;;;;;;;;;;13009629;19;20354;-62
2023/05/29 10:07:32;;;;;;;2.00;1.02;;;;;;;;;;13011386;19;20521;-62
2023/05/29 10:11:50;;;;;;;5.20;1.70;;;;;;;;;;13010416;19;20063;-62
2023/05/29 10:16:12;;;;;;;2.55;1.65;;;;;;;;;;13009472;19;20007;-62
2023/05/29 10:20:33;;;;;;;4.45;1.50;;;;;;;;;;13011319;19;20011;-62
2023/05/29 10:24:52;;;;;;;4.50;1.30;;;;;;;;;;13010814;19;20029;-62
2023/05/29 10:29:26;;;;;;;4.60;1.40;;;;;;;;;;13010302;19;20010;-62
2023/05/29 10:34:02;;;;;;;2.88;1.27;;;;;;;;;;13009985;19;20021;-62
2023/05/29 10:38:21;;;;;;;5.05;1.48;;;;;;;;;;13008749;19;20014;-62
2023/05/29 10:42:38;;;;;;;;;;;;;;;;;;13010179;19;20467;-62
2023/05/29 10:47:00;;;;;;;;;;;;;;;;;;13009755;19;19918;-62
2023/05/29 10:51:29;;;;;;;3.65;1.08;;;;;;;;;;13009279;19;19911;-62
2023/05/29 10:55:47;;;;;;;1.55;1.15;;;;;;;;;;13007022;19;20029;-62
2023/05/29 11:00:11;;;;;;;2.33;1.35;;;;;;;;;;13008666;19;20017;-62
2023/05/29 11:04:31;;;;;;;2.38;1.27;;;;;;;;;;13007709;19;20011;-62
2023/05/29 11:08:56;;;;;;;2.55;1.58;;;;;;;;;;13008491;19;20014;-62
2023/05/29 11:13:33;;;;;;;2.63;1.83;;;;;;;;;;13005695;19;20030;-62
2023/05/29 11:17:53;;;;;;;3.67;1.48;;;;;;;;;;13008817;19;20011;-63
2023/05/29 11:22:22;;;;;;;10.88;1.92;;;;;;;;;;13007781;19;20014;-63
2023/05/29 11:26:45;;;;;;;2.47;1.48;;;;;;;;;;13006404;19;20324;-63
2023/05/29 11:31:08;;;;;;;4.63;2.78;;;;;;;;;;13005404;19;20006;-62
2023/05/29 11:35:30;;;;;;;2.42;1.40;;;;;;;;;;13007076;19;20501;-62
2023/05/29 11:39:48;;;;;;;2.85;1.25;;;;;;;;;;13007020;19;20101;-62
2023/05/29 11:44:06;;;;;;;2.90;1.80;;;;;;;;;;13005784;19;20025;-62
2023/05/29 11:48:24;;;;;;;3.10;1.60;;;;;;;;;;13005809;19;20014;-62
2023/05/29 11:52:46;;;;;;;3.65;1.50;;;;;;;;;;13006279;19;20010;-62
2023/05/29 11:57:05;;;;;;;3.13;1.50;;;;;;;;;;13005606;19;20010;-61
2023/05/29 12:01:25;;;;;;;3.15;1.58;;;;;;;;;;13005683;19;20106;-62
2023/05/29 12:05:55;;;;;;;2.63;1.40;;;;;;;;;;13005069;19;20349;-62
2023/05/29 12:10:16;;;;;;;4.93;1.50;;;;;;;;;;13004926;19;20010;-62
2023/05/29 12:14:34;;;;;;;4.45;1.73;;;;;;;;;;13005296;19;20010;-63
2023/05/29 12:18:53;;;;;;;2.10;1.20;;;;;;;;;;13004611;19;20110;-63
2023/05/29 12:23:13;;;;;;;1.63;1.05;;;;;;;;;;13002878;19;20007;-62
2023/05/29 12:27:32;;;;;;;2.72;1.30;;;;;;;;;;13003331;19;20013;-62
2023/05/29 12:31:58;;;;;;;2.88;1.48;;;;;;;;;;13004105;19;20118;-62
2023/05/29 12:36:17;;;;;;;5.97;1.75;;;;;;;;;;13003237;19;20349;-62
2023/05/29 12:40:36;;;;;;;6.65;1.80;;;;;;;;;;13001541;19;20014;-62
2023/05/29 12:44:54;;;;;;;7.28;2.00;;;;;;;;;;13002366;19;20014;-62
2023/05/29 12:49:25;;;;;;;3.58;1.88;;;;;;;;;;13002237;19;20457;-62
2023/05/29 12:53:43;;;;;;;6.55;2.17;;;;;;;;;;13003186;19;20002;-62
2023/05/29 12:58:03;;;;;;;4.63;1.35;;;;;;;;;;13002299;19;20465;-62
2023/05/29 13:02:22;;;;;;;2.45;1.35;;;;;;;;;;13002738;19;20014;-62
2023/05/29 13:06:41;;;;;;;2.00;1.13;;;;;;;;;;13001879;19;20503;-62
2023/05/29 13:10:59;;;;;;;4.80;1.52;;;;;;;;;;13002440;19;20014;-62
2023/05/29 13:15:17;;;;;;;2.88;1.60;;;;;;;;;;13002077;19;20013;-62
2023/05/29 13:19:36;;;;;;;5.05;1.88;;;;;;;;;;13001332;19;20010;-62
2023/05/29 13:23:54;;;;;;;3.25;1.60;;;;;;;;;;13001451;19;20007;-62
2023/05/29 13:28:11;;;;;;;2.30;1.60;;;;;;;;;;13000027;19;20052;-62
2023/05/29 13:32:30;;;;;;;7.75;2.13;;;;;;;;;;13000817;19;20046;-62
2023/05/29 13:36:47;;;;;;;3.78;2.13;;;;;;;;;;13007740;19;20011;-62
2023/05/29 13:41:06;;;;;;;5.28;2.03;;;;;;;;;;13012731;19;19998;-61
2023/05/29 13:45:27;;;;;;;5.32;1.60;;;;;;;;;;13012459;19;20460;-62
2023/05/29 13:49:45;;;;;;;3.28;1.63;;;;;;;;;;13013310;19;20010;-62
2023/05/29 13:54:04;;;;;;;6.07;1.90;;;;;;;;;;13011899;19;20094;-63
2023/05/29 13:58:22;;;;;;;5.35;2.00;;;;;;;;;;13012146;19;20026;-61
2023/05/29 14:02:41;;;;;;;5.13;1.85;;;;;;;;;;13012101;19;20353;-61
2023/05/29 14:06:59;;;;;;;5.70;2.22;;;;;;;;;;13011370;19;20007;-61
2023/05/29 14:11:18;;;;;;;3.33;2.00;;;;;;;;;;13012051;19;20461;-62
2023/05/29 14:15:37;;;;;;;5.22;2.38;;;;;;;;;;13012393;19;20015;-62
2023/05/29 14:19:57;;;;;;;2.22;1.55;;;;;;;;;;13012217;19;20011;-61
2023/05/29 14:24:17;;;;;;;7.10;2.55;;;;;;;;;;13010816;19;20010;-60
2023/05/29 14:28:36;;;;;;;3.08;1.92;;;;;;;;;;13010628;19;20002;-61
2023/05/29 14:32:56;;;;;;;7.75;1.98;;;;;;;;;;13010394;19;20343;-61
2023/05/29 14:37:13;;;;;;;8.80;1.80;;;;;;;;;;13009808;19;20010;-61
2023/05/29 14:41:33;;;;;;;4.63;2.33;;;;;;;;;;13010423;19;20013;-62
2023/05/29 14:45:51;;;;;;;4.68;1.73;;;;;;;;;;13008493;19;20469;-62
2023/05/29 14:50:09;;;;;;;2.83;2.00;;;;;;;;;;13009150;19;20045;-63
2023/05/29 14:54:28;;;;;;;8.13;2.33;;;;;;;;;;13010075;19;20327;-62
2023/05/29 14:58:48;;;;;;;4.95;2.28;;;;;;;;;;13008914;19;20033;-63
2023/05/29 15:03:05;;;;;;;4.38;2.17;;;;;;;;;;13008422;19;20014;-63
2023/05/29 15:07:23;;;;;;;5.30;1.75;;;;;;;;;;13005422;19;20114;-62
2023/05/29 15:11:42;;;;;;;5.20;2.40;;;;;;;;;;13006548;19;20483;-62
2023/05/29 15:16:02;;;;;;;3.90;1.95;;;;;;;;;;13007820;19;20381;-66
2023/05/29 15:20:26;;;;;;;3.67;1.52;;;;;;;;;;13006684;19;20319;-62
2023/05/29 15:24:44;;;;;;;3.90;1.80;;;;;;;;;;13008293;19;20019;-62
2023/05/29 15:29:02;;;;;;;3.03;1.33;;;;;;;;;;13007144;19;20014;-63
2023/05/29 15:33:20;;;;;;;;;;;;;;;;;;13008108;19;20339;-62
2023/05/29 15:37:40;;;;;;;4.75;1.60;;;;;;;;;;13007498;19;19930;-62
2023/05/29 15:41:58;;;;;;;2.33;1.55;;;;;;;;;;13006890;19;20014;-62
2023/05/29 15:46:15;;;;;;;3.22;1.90;;;;;;;;;;13005879;19;20011;-63
2023/05/29 15:50:34;;;;;;;2.08;1.40;;;;;;;;;;13007024;19;20006;-62
2023/05/29 15:54:52;;;;;;;3.28;1.73;;;;;;;;;;13006338;19;20006;-62
2023/05/29 15:59:13;;;;;;;3.58;1.77;;;;;;;;;;13004505;19;20010;-62
2023/05/29 16:03:31;;;;;;;2.67;1.40;;;;;;;;;;13006185;19;20030;-63
2023/05/29 16:07:50;;;;;;;6.60;1.60;;;;;;;;;;13005219;19;20025;-62
2023/05/29 16:12:11;;;;;;;4.43;1.58;;;;;;;;;;13004813;19;20010;-62
2023/05/29 16:16:32;;;;;;;5.65;1.75;;;;;;;;;;13005303;19;20006;-62
2023/05/29 16:20:51;;;;;;;2.47;1.20;;;;;;;;;;13004478;19;20346;-62
2023/05/29 16:25:10;;;;;;;2.17;1.40;;;;;;;;;;13003846;19;20042;-63
2023/05/29 16:29:28;;;;;;;1.88;1.10;;;;;;;;;;13003740;19;20010;-62
2023/05/29 16:33:46;;;;;;;1.30;0.85;;;;;;;;;;13004237;19;20007;-63
2023/05/29 16:38:05;;;;;;;2.22;1.05;;;;;;;;;;13003151;19;20002;-63
2023/05/29 16:42:23;;;;;;;1.50;1.13;;;;;;;;;;13003480;19;20041;-62
2023/05/29 16:46:41;;;;;;;6.13;1.80;;;;;;;;;;13002463;19;20007;-62
2023/05/29 16:51:00;;;;;;;3.17;1.15;;;;;;;;;;13002795;19;20010;-62
2023/05/29 16:55:19;;;;;;;2.90;1.30;;;;;;;;;;13003240;19;20010;-62
2023/05/29 16:59:37;;;;;;;3.63;1.40;;;;;;;;;;13002851;19;20014;-62
2023/05/29 17:03:56;;;;;;;3.13;1.25;;;;;;;;;;13002278;19;20349;-62
2023/05/29 17:08:14;;;;;;;1.42;0.90;;;;;;;;;;13001126;19;20488;-62
2023/05/29 17:12:32;;;;;;;2.03;1.30;;;;;;;;;;13000529;19;20007;-62
2023/05/29 17:16:51;;;;;;;10.35;1.85;;;;;;;;;;13002586;19;20030;-62
2023/05/29 17:21:09;;;;;;;8.63;2.72;;;;;;;;;;13001097;19;20014;-62
2023/05/29 17:25:27;;;;;;;;;;;;;;;;;;13002022;19;20014;-62
2023/05/29 17:29:46;;;;;;;11.82;7.03;;;;;;;;;;13000471;19;20380;-62
2023/05/29 17:34:04;;;;;;;11.95;6.35;;;;;;;;;;13000711;19;20445;-62
2023/05/29 17:38:22;;;;;;;15.70;8.07;;;;;;;;;;13001205;19;20007;-62
2023/05/29 17:42:40;;;;;;;17.60;8.30;;;;;;;;;;13000770;19;20130;-62
2023/05/29 17:46:58;;;;;;;32.08;12.82;;;;;;;;;;12999148;19;20010;-62
2023/05/29 17:51:17;;;;;;;32.78;15.15;;;;;;;;;;12998697;19;20473;-62
2023/05/29 17:55:35;;;;;;;39.03;16.02;;;;;;;;;;13000241;19;20090;-62
2023/05/29 17:59:53;;;;;;;21.67;10.82;;;;;;;;;;12999817;19;20007;-62
2023/05/29 18:04:11;;;;;;;24.00;10.50;;;;;;;;;;12998732;19;20010;-62
2023/05/29 18:08:29;;;;;;;19.65;8.73;;;;;;;;;;12998890;19;20454;-61
2023/05/29 18:12:47;;;;;;;38.65;15.18;;;;;;;;;;12999318;19;20002;-61
2023/05/29 18:17:06;;;;;;;48.22;20.77;;;;;;;;;;12997918;19;20331;-60
2023/05/29 18:21:24;;;;;;;40.80;16.40;;;;;;;;;;13001125;19;20319;-61
2023/05/29 18:25:41;;;;;;;46.55;17.00;;;;;;;;;;13011311;19;20007;-61
2023/05/29 18:30:00;;;;;;;193.18;58.75;;;;;;;;;;13010384;19;20014;-60
2023/05/29 18:34:19;;;;;;;126.03;40.85;;;;;;;;;;13010817;19;20453;-62
2023/05/29 18:38:37;;;;;;;89.15;30.63;;;;;;;;;;13010418;19;20011;-62
2023/05/29 18:42:56;;;;;;;47.13;16.23;;;;;;;;;;13009852;19;20010;-61
2023/05/29 18:47:16;;;;;;;29.67;12.15;;;;;;;;;;13009816;19;20007;-61
2023/05/29 18:51:34;;;;;;;25.45;8.60;;;;;;;;;;13009701;19;20002;-61
2023/05/29 18:55:52;;;;;;;18.25;6.93;;;;;;;;;;13009653;19;20010;-61
2023/05/29 19:00:12;;;;;;;19.10;5.85;;;;;;;;;;13009201;19;20002;-61
2023/05/29 19:04:31;;;;;;;20.00;6.53;;;;;;;;;;13008813;19;20026;-60
2023/05/29 19:08:50;;;;;;;14.93;7.30;;;;;;;;;;13008555;19;20009;-61
2023/05/29 19:13:10;;;;;;;28.75;10.30;;;;;;;;;;13007967;19;20094;-62
2023/05/29 19:17:28;;;;;;;30.77;10.90;;;;;;;;;;13008922;19;20353;-61
2023/05/29 19:21:47;;;;;;;39.20;13.30;;;;;;;;;;13008125;19;20472;-61
2023/05/29 19:26:05;;;;;;;36.67;13.55;;;;;;;;;;13007185;19;20002;-61
2023/05/29 19:30:23;;;;;;;30.40;12.10;;;;;;;;;;13007490;19;20015;-61
2023/05/29 19:34:41;;;;;;;32.95;12.07;;;;;;;;;;13005623;19;20440;-61
2023/05/29 19:39:00;;;;;;;44.83;13.13;;;;;;;;;;13007121;19;19999;-61
2023/05/29 19:43:20;;;;;;;34.85;12.02;;;;;;;;;;13006470;19;20035;-61
2023/05/29 19:47:41;;;;;;;38.78;12.45;;;;;;;;;;13004747;19;20006;-61
2023/05/29 19:52:02;;;;;;;25.55;11.85;;;;;;;;;;13006290;19;20011;-61
2023/05/29 19:56:20;;;;;;;33.38;11.45;;;;;;;;;;13006193;19;20010;-61
2023/05/29 20:00:39;;;;;;;29.15;9.55;;;;;;;;;;13005789;19;20022;-61
2023/05/29 20:04:58;;;;;;;25.67;11.10;;;;;;;;;;13006683;19;20369;-61
2023/05/29 20:09:17;;;;;;;19.23;9.20;;;;;;;;;;13004753;19;20350;-62
2023/05/29 20:13:36;;;;;;;22.25;10.07;;;;;;;;;;13005405;19;20010;-62
2023/05/29 20:17:54;;;;;;;37.90;17.67;;;;;;;;;;13005184;19;20021;-62
2023/05/29 20:22:14;;;;;;;49.17;21.45;;;;;;;;;;13004535;19;20013;-62
2023/05/29 20:26:32;;;;;;;35.60;16.48;;;;;;;;;;13002197;19;20029;-62
2023/05/29 20:30:49;;;;;;;31.20;14.98;;;;;;;;;;13004329;19;20018;-61
2023/05/29 20:35:09;;;;;;;44.55;19.27;;;;;;;;;;13003191;19;20019;-62
2023/05/29 20:39:28;;;;;;;54.83;22.58;;;;;;;;;;13003955;19;20490;-62
2023/05/29 20:43:48;;;;;;;60.70;26.63;;;;;;;;;;13002694;19;20021;-61
2023/05/29 20:48:06;;;;;;;67.38;28.52;;;;;;;;;;13002663;19;20074;-61
2023/05/29 20:52:26;;;;;;;64.35;25.70;;;;;;;;;;13003777;19;20311;-62
2023/05/29 20:56:47;;;;;;;65.72;26.95;;;;;;;;;;13003201;19;20033;-62
2023/05/29 21:01:05;;;;;;;70.95;27.15;;;;;;;;;;13002331;19;20017;-62
2023/05/29 21:05:23;;;;;;;63.17;25.03;;;;;;;;;;13000783;19;20014;-62
2023/05/29 21:09:42;;;;;;;63.15;24.52;;;;;;;;;;13002594;19;20375;-62
2023/05/29 21:14:01;;;;;;;46.03;21.05;;;;;;;;;;13002307;19;20022;-62
2023/05/29 21:18:19;;;;;;;45.95;18.48;;;;;;;;;;13001705;19;20011;-61
2023/05/29 21:22:38;;;;;;;64.30;25.88;;;;;;;;;;13002136;19;20018;-61
2023/05/29 21:26:56;;;;;;;65.40;25.15;;;;;;;;;;13001350;19;20017;-62
2023/05/29 21:31:14;;;;;;;60.95;24.52;;;;;;;;;;13000662;19;20006;-61
2023/05/29 21:35:33;;;;;;;57.05;23.20;;;;;;;;;;13001480;19;20010;-62
2023/05/29 21:39:51;;;;;;;53.58;20.40;;;;;;;;;;12999919;19;20018;-60
2023/05/29 21:44:09;;;;;;;39.50;17.02;;;;;;;;;;12999135;19;20018;-61
2023/05/29 21:48:27;;;;;;;;;;;;;;;;;;12999691;19;20450;-64
2023/05/29 21:52:45;;;;;;;41.97;17.25;;;;;;;;;;13000314;19;19921;-63
2023/05/29 21:57:03;;;;;;;36.90;16.00;;;;;;;;;;13002316;19;20097;-64
2023/05/29 22:01:21;;;;;;;41.33;15.18;;;;;;;;;;13011969;19;20015;-64
2023/05/29 22:05:38;;;;;;;31.63;12.77;;;;;;;;;;13012871;19;20011;-64
2023/05/29 22:09:56;;;;;;;29.58;12.55;;;;;;;;;;13010762;19;20011;-66
2023/05/29 22:14:16;;;;;;;22.42;10.27;;;;;;;;;;13011060;19;20006;-64
2023/05/29 22:18:36;;;;;;;24.08;9.25;;;;;;;;;;13011322;19;20026;-64
2023/05/29 22:22:56;;;;;;;17.27;8.02;;;;;;;;;;13011650;19;20014;-63
2023/05/29 22:27:25;;;;;;;17.48;7.97;;;;;;;;;;13009205;19;20469;-64
2023/05/29 22:31:43;;;;;;;14.65;6.30;;;;;;;;;;13010637;19;20776;-64
2023/05/29 22:36:03;;;;;;;14.15;6.95;;;;;;;;;;13009259;19;20017;-65
2023/05/29 22:40:20;;;;;;;19.33;9.07;;;;;;;;;;13010174;19;20014;-65
2023/05/29 22:44:40;;;;;;;20.13;7.47;;;;;;;;;;13009261;19;20017;-65
2023/05/29 22:48:58;;;;;;;15.45;8.55;;;;;;;;;;13008658;19;20014;-64
2023/05/29 22:53:17;;;;;;;17.92;8.05;;;;;;;;;;13009109;19;20039;-64
2023/05/29 22:57:37;;;;;;;14.80;7.68;;;;;;;;;;13009147;19;20011;-64
2023/05/29 23:01:55;;;;;;;12.88;7.43;;;;;;;;;;13008999;19;20006;-65
2023/05/29 23:06:14;;;;;;;15.73;6.70;;;;;;;;;;13008265;19;20010;-64
2023/05/29 23:10:33;;;;;;;18.10;6.60;;;;;;;;;;13005042;19;20485;-64
2023/05/29 23:14:52;;;;;;;14.32;7.18;;;;;;;;;;13006989;19;20006;-64
2023/05/29 23:19:10;;;;;;;14.60;7.13;;;;;;;;;;13006076;19;20090;-64
2023/05/29 23:23:28;;;;;;;17.25;5.82;;;;;;;;;;13008679;19;20022;-64
2023/05/29 23:27:47;;;;;;;10.60;6.03;;;;;;;;;;13007581;19;20365;-64
2023/05/29 23:32:06;;;;;;;13.93;7.05;;;;;;;;;;13006925;19;20006;-65
2023/05/29 23:36:25;;;;;;;16.65;7.13;;;;;;;;;;13005914;19;20006;-66
2023/05/29 23:40:45;;;;;;;13.30;6.68;;;;;;;;;;13007410;19;20129;-65
2023/05/29 23:45:03;;;;;;;;;;;;;;;;;;13006094;19;20011;-64
2023/05/29 23:49:22;;;;;;;19.13;6.88;;;;;;;;;;13006217;19;19941;-64
2023/05/29 23:53:41;;;;;;;12.25;6.32;;;;;;;;;;13006854;19;20002;-65
2023/05/29 23:58:00;;;;;;;;;;;;;;;;;;13006620;19;20481;-65
